Ludlow, MA (01056)

3:33 AM EDT on July 07, 2015 (GMT -0400)
Wilbraham & Monson Academy | | Change Station
CLOSE
Current Station
Personal Weather Station
Location: Wilbraham, MA
Elevation: 318 ft
Nearby Weather Stations

Elev 318 ft 42.13 °N, 72.43 °W | Updated 8 minutes ago

Clear
Clear
70.7 °F
Feels Like 71 °F
N
1.0
Wind Variable Wind from SE
Gusts 2.0 mph

Today
High -- | Low -- °F
--% Chance of Precip.
Yesterday
High -- | Low -- °F
Precip. -- in
5:20 AM 8:28 PM
Waning Gibbous, 67% visible
Pressure 30.09 in
Visibility 10.0 miles
Clouds Overcast 2900 ft
Heat Index 71 °F
Dew Point 64 °F
Humidity 80%
Rainfall 0.00 in
Snow Depth Not available.
UV 0.0 out of 12
Pollen 4.40 out of 12
Air Quality Not available.
Flu Activity Not available.
METAR KCEF 070658Z AUTO 13002KT 10SM OVC029 21/17 A3008 RMK AO2 SLP190 T02070174

More Conditions Fewer Conditions

Pressure 30.09 in
Visibility 10.0 miles
Clouds Overcast 2900 ft
Heat Index 71 °F
Dew Point 64 °F
Humidity 80%
Rainfall 0.00 in
Snow Depth Not available.
UV 0.0 out of 12
Pollen 4.40 out of 12
Air Quality Not available.
Flu Activity Not available.
METAR KCEF 070658Z AUTO 13002KT 10SM OVC029 21/17 A3008 RMK AO2 SLP190 T02070174

More Conditions Fewer Conditions

10-Day Weather Forecast

×

Almanac

Astronomy

Jul. 07, 2015 Rise Set
Actual Time
Civil Twilight
Nautical Twilight
Astronomical Twilight
Moon
Length of Visible Light
Length of Day
Tomorrow will be .
, % of the Moon is Illuminated

Today's Extremes

State Highs State Lows

Community

WunderPhotos

Upload Photos

1,835,756 photos uploaded!

WunderBlogs® & News

Nearby

Air Quality

  Air Quality AQ Index Pollutant
Not available.

Snow Depth

Station Depth Elevation

Earthquake Activity

City Distance Mag. Time & Date
Minimum magnitude displayed is 2.5.

Coastal Water Temperatures

Place Temperature

Stations

Nearby Weather Stations

Station Location Temp. Windchill Dew Point Humidity Wind Precip. Elev Updated Type